sensor_id;sensor_type;location;lat;lon;timestamp;temperature;humidity
71208;DHT22;58938;49.868;8.646;2022-12-29T00:01:44;13.30;55.80
71208;DHT22;58938;49.868;8.646;2022-12-29T00:04:12;13.30;55.90
71208;DHT22;58938;49.868;8.646;2022-12-29T00:06:38;13.30;55.90
71208;DHT22;58938;49.868;8.646;2022-12-29T00:09:04;13.30;55.90
71208;DHT22;58938;49.868;8.646;2022-12-29T00:11:30;13.30;56.00
71208;DHT22;58938;49.868;8.646;2022-12-29T00:13:55;13.30;56.10
71208;DHT22;58938;49.868;8.646;2022-12-29T00:16:44;13.40;56.10
71208;DHT22;58938;49.868;8.646;2022-12-29T00:19:11;13.40;56.20
71208;DHT22;58938;49.868;8.646;2022-12-29T00:21:57;13.30;56.30
71208;DHT22;58938;49.868;8.646;2022-12-29T00:24:43;13.40;56.40
71208;DHT22;58938;49.868;8.646;2022-12-29T00:27:30;13.40;56.60
71208;DHT22;58938;49.868;8.646;2022-12-29T00:30:17;13.30;56.90
71208;DHT22;58938;49.868;8.646;2022-12-29T00:33:13;13.30;57.40
71208;DHT22;58938;49.868;8.646;2022-12-29T00:36:01;13.30;57.60
71208;DHT22;58938;49.868;8.646;2022-12-29T00:38:28;13.30;57.80
71208;DHT22;58938;49.868;8.646;2022-12-29T00:41:13;13.30;58.20
71208;DHT22;58938;49.868;8.646;2022-12-29T00:43:57;13.30;59.00
71208;DHT22;58938;49.868;8.646;2022-12-29T00:46:33;13.30;58.90
71208;DHT22;58938;49.868;8.646;2022-12-29T00:48:59;13.40;59.10
71208;DHT22;58938;49.868;8.646;2022-12-29T00:51:44;13.40;59.40
71208;DHT22;58938;49.868;8.646;2022-12-29T00:54:10;13.40;59.60
71208;DHT22;58938;49.868;8.646;2022-12-29T00:56:35;13.40;59.80
71208;DHT22;58938;49.868;8.646;2022-12-29T00:59:05;13.40;60.00
71208;DHT22;58938;49.868;8.646;2022-12-29T01:01:31;13.30;60.10
71208;DHT22;58938;49.868;8.646;2022-12-29T01:03:57;13.30;60.30
71208;DHT22;58938;49.868;8.646;2022-12-29T01:06:23;13.30;60.20
71208;DHT22;58938;49.868;8.646;2022-12-29T01:08:50;13.30;60.40
71208;DHT22;58938;49.868;8.646;2022-12-29T01:11:36;13.30;61.00
71208;DHT22;58938;49.868;8.646;2022-12-29T01:14:01;13.30;62.30
71208;DHT22;58938;49.868;8.646;2022-12-29T01:16:27;13.30;62.40
71208;DHT22;58938;49.868;8.646;2022-12-29T01:18:53;13.30;63.10
71208;DHT22;58938;49.868;8.646;2022-12-29T01:21:18;13.30;63.40
71208;DHT22;58938;49.868;8.646;2022-12-29T01:23:44;13.30;64.00
71208;DHT22;58938;49.868;8.646;2022-12-29T01:26:11;13.30;64.30
71208;DHT22;58938;49.868;8.646;2022-12-29T01:28:37;13.30;64.10
71208;DHT22;58938;49.868;8.646;2022-12-29T01:31:06;13.40;64.30
71208;DHT22;58938;49.868;8.646;2022-12-29T01:33:31;13.40;64.60
71208;DHT22;58938;49.868;8.646;2022-12-29T01:36:04;13.40;64.50
71208;DHT22;58938;49.868;8.646;2022-12-29T01:38:30;13.40;64.80
71208;DHT22;58938;49.868;8.646;2022-12-29T01:40:56;13.40;64.70
71208;DHT22;58938;49.868;8.646;2022-12-29T01:46:38;13.50;64.50
71208;DHT22;58938;49.868;8.646;2022-12-29T01:49:17;13.50;64.40
71208;DHT22;58938;49.868;8.646;2022-12-29T01:51:50;13.50;64.50
71208;DHT22;58938;49.868;8.646;2022-12-29T01:54:27;13.50;64.60
71208;DHT22;58938;49.868;8.646;2022-12-29T01:56:55;13.50;64.60
71208;DHT22;58938;49.868;8.646;2022-12-29T01:59:26;13.50;64.60
71208;DHT22;58938;49.868;8.646;2022-12-29T02:01:53;13.60;64.50
71208;DHT22;58938;49.868;8.646;2022-12-29T02:04:22;13.60;64.60
71208;DHT22;58938;49.868;8.646;2022-12-29T02:06:55;13.60;64.60
71208;DHT22;58938;49.868;8.646;2022-12-29T02:09:22;13.60;64.60
71208;DHT22;58938;49.868;8.646;2022-12-29T02:11:49;13.60;64.60
71208;DHT22;58938;49.868;8.646;2022-12-29T02:14:14;13.70;64.70
71208;DHT22;58938;49.868;8.646;2022-12-29T02:22:34;13.70;64.90
71208;DHT22;58938;49.868;8.646;2022-12-29T02:25:24;13.70;64.80
71208;DHT22;58938;49.868;8.646;2022-12-29T02:33:58;13.70;64.70
71208;DHT22;58938;49.868;8.646;2022-12-29T02:36:49;13.70;64.70
71208;DHT22;58938;49.868;8.646;2022-12-29T02:39:48;13.70;64.60
71208;DHT22;58938;49.868;8.646;2022-12-29T02:50:47;13.70;64.70
71208;DHT22;58938;49.868;8.646;2022-12-29T02:53:17;13.70;64.70
71208;DHT22;58938;49.868;8.646;2022-12-29T02:56:04;13.70;64.70
71208;DHT22;58938;49.868;8.646;2022-12-29T02:58:30;13.70;64.80
71208;DHT22;58938;49.868;8.646;2022-12-29T03:11:59;13.80;64.60
71208;DHT22;58938;49.868;8.646;2022-12-29T03:15:02;13.80;64.60
71208;DHT22;58938;49.868;8.646;2022-12-29T03:17:57;13.80;64.60
71208;DHT22;58938;49.868;8.646;2022-12-29T03:20:38;13.80;64.50
71208;DHT22;58938;49.868;8.646;2022-12-29T03:23:05;13.80;64.50
71208;DHT22;58938;49.868;8.646;2022-12-29T03:25:42;13.80;64.40
71208;DHT22;58938;49.868;8.646;2022-12-29T03:28:13;13.80;64.50
71208;DHT22;58938;49.868;8.646;2022-12-29T03:30:41;13.80;64.40
71208;DHT22;58938;49.868;8.646;2022-12-29T03:33:11;13.80;64.30
71208;DHT22;58938;49.868;8.646;2022-12-29T03:35:40;13.80;64.30
71208;DHT22;58938;49.868;8.646;2022-12-29T03:38:19;13.80;64.30
71208;DHT22;58938;49.868;8.646;2022-12-29T03:40:49;13.90;64.20
71208;DHT22;58938;49.868;8.646;2022-12-29T03:43:15;13.90;64.10
71208;DHT22;58938;49.868;8.646;2022-12-29T03:45:41;13.80;64.20
71208;DHT22;58938;49.868;8.646;2022-12-29T03:48:07;13.80;64.20
71208;DHT22;58938;49.868;8.646;2022-12-29T03:50:32;13.80;64.10
71208;DHT22;58938;49.868;8.646;2022-12-29T03:52:58;13.80;64.10
71208;DHT22;58938;49.868;8.646;2022-12-29T03:55:24;13.90;64.10
71208;DHT22;58938;49.868;8.646;2022-12-29T03:57:49;13.90;63.90
71208;DHT22;58938;49.868;8.646;2022-12-29T04:00:15;13.80;63.80
71208;DHT22;58938;49.868;8.646;2022-12-29T04:02:41;13.80;63.80
71208;DHT22;58938;49.868;8.646;2022-12-29T04:05:07;13.80;63.80
71208;DHT22;58938;49.868;8.646;2022-12-29T04:07:32;13.90;63.70
71208;DHT22;58938;49.868;8.646;2022-12-29T04:09:58;13.90;63.60
71208;DHT22;58938;49.868;8.646;2022-12-29T04:12:23;13.90;63.60
71208;DHT22;58938;49.868;8.646;2022-12-29T04:14:49;13.90;63.50
71208;DHT22;58938;49.868;8.646;2022-12-29T04:17:14;13.90;63.40
71208;DHT22;58938;49.868;8.646;2022-12-29T04:19:40;13.90;63.40
71208;DHT22;58938;49.868;8.646;2022-12-29T04:22:05;13.90;63.50
71208;DHT22;58938;49.868;8.646;2022-12-29T04:24:31;13.90;63.40
71208;DHT22;58938;49.868;8.646;2022-12-29T04:26:56;13.90;63.40
71208;DHT22;58938;49.868;8.646;2022-12-29T04:29:22;13.90;63.30
71208;DHT22;58938;49.868;8.646;2022-12-29T04:31:48;13.90;63.30
71208;DHT22;58938;49.868;8.646;2022-12-29T04:34:13;13.90;63.20
71208;DHT22;58938;49.868;8.646;2022-12-29T04:36:39;13.90;63.20
71208;DHT22;58938;49.868;8.646;2022-12-29T04:39:06;13.90;63.30
71208;DHT22;58938;49.868;8.646;2022-12-29T04:41:31;13.90;63.20
71208;DHT22;58938;49.868;8.646;2022-12-29T04:43:57;13.90;63.10
71208;DHT22;58938;49.868;8.646;2022-12-29T04:46:23;13.90;63.00
71208;DHT22;58938;49.868;8.646;2022-12-29T04:48:48;13.90;63.10
71208;DHT22;58938;49.868;8.646;2022-12-29T04:51:14;13.90;63.10
71208;DHT22;58938;49.868;8.646;2022-12-29T04:53:40;13.90;62.90
71208;DHT22;58938;49.868;8.646;2022-12-29T04:56:06;13.90;62.80
71208;DHT22;58938;49.868;8.646;2022-12-29T04:58:31;13.90;62.80
71208;DHT22;58938;49.868;8.646;2022-12-29T05:00:57;14.00;62.80
71208;DHT22;58938;49.868;8.646;2022-12-29T05:03:22;14.00;62.80
71208;DHT22;58938;49.868;8.646;2022-12-29T05:05:48;14.00;62.70
71208;DHT22;58938;49.868;8.646;2022-12-29T05:08:14;14.00;62.60
71208;DHT22;58938;49.868;8.646;2022-12-29T05:10:39;14.00;62.50
71208;DHT22;58938;49.868;8.646;2022-12-29T05:13:05;14.00;62.40
71208;DHT22;58938;49.868;8.646;2022-12-29T05:15:30;14.00;62.40
71208;DHT22;58938;49.868;8.646;2022-12-29T05:17:56;14.00;62.30
71208;DHT22;58938;49.868;8.646;2022-12-29T05:20:21;14.00;62.30
71208;DHT22;58938;49.868;8.646;2022-12-29T05:22:47;14.10;62.30
71208;DHT22;58938;49.868;8.646;2022-12-29T05:25:13;14.00;62.20
71208;DHT22;58938;49.868;8.646;2022-12-29T05:27:38;14.00;62.20
71208;DHT22;58938;49.868;8.646;2022-12-29T05:30:04;14.10;62.10
71208;DHT22;58938;49.868;8.646;2022-12-29T05:32:30;14.10;62.10
71208;DHT22;58938;49.868;8.646;2022-12-29T05:34:55;14.10;62.10
71208;DHT22;58938;49.868;8.646;2022-12-29T05:37:21;14.10;61.80
71208;DHT22;58938;49.868;8.646;2022-12-29T05:39:46;14.10;61.90
71208;DHT22;58938;49.868;8.646;2022-12-29T05:42:12;14.10;61.90
71208;DHT22;58938;49.868;8.646;2022-12-29T05:44:37;14.10;61.80
71208;DHT22;58938;49.868;8.646;2022-12-29T05:47:03;14.10;61.60
71208;DHT22;58938;49.868;8.646;2022-12-29T05:49:29;14.10;61.60
71208;DHT22;58938;49.868;8.646;2022-12-29T05:51:54;14.10;61.60
71208;DHT22;58938;49.868;8.646;2022-12-29T05:54:20;14.10;61.60
71208;DHT22;58938;49.868;8.646;2022-12-29T05:56:45;14.10;61.50
71208;DHT22;58938;49.868;8.646;2022-12-29T05:59:11;14.10;61.50
71208;DHT22;58938;49.868;8.646;2022-12-29T06:01:36;14.10;61.50
71208;DHT22;58938;49.868;8.646;2022-12-29T06:04:02;14.10;61.50
71208;DHT22;58938;49.868;8.646;2022-12-29T06:06:28;14.10;61.40
71208;DHT22;58938;49.868;8.646;2022-12-29T06:08:53;14.10;61.40
71208;DHT22;58938;49.868;8.646;2022-12-29T06:11:19;14.10;61.30
71208;DHT22;58938;49.868;8.646;2022-12-29T06:13:44;14.10;61.30
71208;DHT22;58938;49.868;8.646;2022-12-29T06:16:09;14.20;61.30
71208;DHT22;58938;49.868;8.646;2022-12-29T06:18:35;14.10;61.20
71208;DHT22;58938;49.868;8.646;2022-12-29T06:21:02;14.10;61.20
71208;DHT22;58938;49.868;8.646;2022-12-29T06:23:27;14.10;61.10
71208;DHT22;58938;49.868;8.646;2022-12-29T06:25:53;14.20;61.10
71208;DHT22;58938;49.868;8.646;2022-12-29T06:28:19;14.20;61.00
71208;DHT22;58938;49.868;8.646;2022-12-29T06:30:45;14.20;61.00
71208;DHT22;58938;49.868;8.646;2022-12-29T06:33:11;14.20;61.10
71208;DHT22;58938;49.868;8.646;2022-12-29T06:35:37;14.10;61.00
71208;DHT22;58938;49.868;8.646;2022-12-29T06:38:03;14.20;61.00
71208;DHT22;58938;49.868;8.646;2022-12-29T06:40:28;14.20;60.90
71208;DHT22;58938;49.868;8.646;2022-12-29T06:42:54;14.20;60.90
71208;DHT22;58938;49.868;8.646;2022-12-29T06:45:20;14.20;60.90
71208;DHT22;58938;49.868;8.646;2022-12-29T06:47:45;14.10;61.00
71208;DHT22;58938;49.868;8.646;2022-12-29T06:50:11;14.20;61.00
71208;DHT22;58938;49.868;8.646;2022-12-29T06:52:36;14.20;61.00
71208;DHT22;58938;49.868;8.646;2022-12-29T06:55:02;14.20;61.00
71208;DHT22;58938;49.868;8.646;2022-12-29T06:57:27;14.20;60.90
71208;DHT22;58938;49.868;8.646;2022-12-29T06:59:53;14.20;60.90
71208;DHT22;58938;49.868;8.646;2022-12-29T07:02:21;14.20;60.80
71208;DHT22;58938;49.868;8.646;2022-12-29T07:04:46;14.20;60.70
71208;DHT22;58938;49.868;8.646;2022-12-29T07:07:12;14.20;60.70
71208;DHT22;58938;49.868;8.646;2022-12-29T07:09:38;14.20;60.60
71208;DHT22;58938;49.868;8.646;2022-12-29T07:12:03;14.20;60.60
71208;DHT22;58938;49.868;8.646;2022-12-29T07:14:29;14.20;60.60
71208;DHT22;58938;49.868;8.646;2022-12-29T07:16:54;14.20;60.40
71208;DHT22;58938;49.868;8.646;2022-12-29T07:19:20;14.20;60.30
71208;DHT22;58938;49.868;8.646;2022-12-29T07:21:45;14.20;60.30
71208;DHT22;58938;49.868;8.646;2022-12-29T07:24:11;14.30;60.40
71208;DHT22;58938;49.868;8.646;2022-12-29T07:26:36;14.30;60.40
71208;DHT22;58938;49.868;8.646;2022-12-29T07:29:05;14.30;60.50
71208;DHT22;58938;49.868;8.646;2022-12-29T07:31:30;14.30;60.70
71208;DHT22;58938;49.868;8.646;2022-12-29T07:33:56;14.30;60.70
71208;DHT22;58938;49.868;8.646;2022-12-29T07:36:22;14.30;60.80
71208;DHT22;58938;49.868;8.646;2022-12-29T07:38:47;14.20;60.90
71208;DHT22;58938;49.868;8.646;2022-12-29T07:41:13;14.20;60.90
71208;DHT22;58938;49.868;8.646;2022-12-29T07:43:38;14.20;61.00
71208;DHT22;58938;49.868;8.646;2022-12-29T07:46:04;14.20;61.10
71208;DHT22;58938;49.868;8.646;2022-12-29T07:48:29;14.20;61.10
71208;DHT22;58938;49.868;8.646;2022-12-29T07:50:55;14.30;61.20
71208;DHT22;58938;49.868;8.646;2022-12-29T07:53:20;14.20;61.00
71208;DHT22;58938;49.868;8.646;2022-12-29T07:55:46;14.20;61.00
71208;DHT22;58938;49.868;8.646;2022-12-29T07:58:11;14.20;61.10
71208;DHT22;58938;49.868;8.646;2022-12-29T08:00:38;14.30;60.80
71208;DHT22;58938;49.868;8.646;2022-12-29T08:03:04;14.30;60.60
71208;DHT22;58938;49.868;8.646;2022-12-29T08:05:33;14.30;60.50
71208;DHT22;58938;49.868;8.646;2022-12-29T08:07:59;14.20;60.40
71208;DHT22;58938;49.868;8.646;2022-12-29T08:10:25;14.20;60.20
71208;DHT22;58938;49.868;8.646;2022-12-29T08:12:50;14.20;60.00
71208;DHT22;58938;49.868;8.646;2022-12-29T08:15:16;14.20;59.80
71208;DHT22;58938;49.868;8.646;2022-12-29T08:17:41;14.20;59.90
71208;DHT22;58938;49.868;8.646;2022-12-29T08:20:07;14.20;59.90
71208;DHT22;58938;49.868;8.646;2022-12-29T08:22:33;14.20;59.70
71208;DHT22;58938;49.868;8.646;2022-12-29T08:24:59;14.20;59.50
71208;DHT22;58938;49.868;8.646;2022-12-29T08:27:25;14.20;59.60
71208;DHT22;58938;49.868;8.646;2022-12-29T08:29:51;14.30;59.50
71208;DHT22;58938;49.868;8.646;2022-12-29T08:32:17;14.20;59.60
71208;DHT22;58938;49.868;8.646;2022-12-29T08:34:42;14.30;59.60
71208;DHT22;58938;49.868;8.646;2022-12-29T08:37:08;14.30;59.50
71208;DHT22;58938;49.868;8.646;2022-12-29T08:39:34;14.30;59.40
71208;DHT22;58938;49.868;8.646;2022-12-29T08:41:59;14.30;59.50
71208;DHT22;58938;49.868;8.646;2022-12-29T08:44:25;14.30;59.50
71208;DHT22;58938;49.868;8.646;2022-12-29T08:46:50;14.30;59.40
71208;DHT22;58938;49.868;8.646;2022-12-29T08:49:16;14.30;59.40
71208;DHT22;58938;49.868;8.646;2022-12-29T08:51:41;14.30;59.30
71208;DHT22;58938;49.868;8.646;2022-12-29T08:54:07;14.40;59.20
71208;DHT22;58938;49.868;8.646;2022-12-29T08:56:32;14.30;59.20
71208;DHT22;58938;49.868;8.646;2022-12-29T08:58:58;14.40;59.20
71208;DHT22;58938;49.868;8.646;2022-12-29T09:01:24;14.40;59.10
71208;DHT22;58938;49.868;8.646;2022-12-29T09:03:49;14.40;59.10
71208;DHT22;58938;49.868;8.646;2022-12-29T09:06:16;14.40;59.10
71208;DHT22;58938;49.868;8.646;2022-12-29T09:08:43;14.40;59.10
71208;DHT22;58938;49.868;8.646;2022-12-29T09:11:20;14.40;59.20
71208;DHT22;58938;49.868;8.646;2022-12-29T09:13:46;14.40;59.20
71208;DHT22;58938;49.868;8.646;2022-12-29T09:16:12;14.40;59.10
71208;DHT22;58938;49.868;8.646;2022-12-29T09:18:38;14.40;59.00
71208;DHT22;58938;49.868;8.646;2022-12-29T09:21:06;14.40;59.00
71208;DHT22;58938;49.868;8.646;2022-12-29T09:23:32;14.40;59.00
71208;DHT22;58938;49.868;8.646;2022-12-29T09:25:58;14.40;59.00
71208;DHT22;58938;49.868;8.646;2022-12-29T09:28:24;14.40;59.00
71208;DHT22;58938;49.868;8.646;2022-12-29T09:30:50;14.40;59.00
71208;DHT22;58938;49.868;8.646;2022-12-29T09:33:16;14.40;59.00
71208;DHT22;58938;49.868;8.646;2022-12-29T09:35:49;14.40;59.00
71208;DHT22;58938;49.868;8.646;2022-12-29T09:38:15;14.40;59.10
71208;DHT22;58938;49.868;8.646;2022-12-29T09:40:44;14.50;59.10
71208;DHT22;58938;49.868;8.646;2022-12-29T09:46:00;14.60;58.90
71208;DHT22;58938;49.868;8.646;2022-12-29T09:48:37;14.60;58.90
71208;DHT22;58938;49.868;8.646;2022-12-29T09:51:10;14.60;58.70
71208;DHT22;58938;49.868;8.646;2022-12-29T09:53:42;14.60;58.80
71208;DHT22;58938;49.868;8.646;2022-12-29T09:56:19;14.70;58.80
71208;DHT22;58938;49.868;8.646;2022-12-29T09:59:00;14.70;58.90
71208;DHT22;58938;49.868;8.646;2022-12-29T10:01:36;14.70;58.90
71208;DHT22;58938;49.868;8.646;2022-12-29T10:04:03;14.80;58.90
71208;DHT22;58938;49.868;8.646;2022-12-29T10:09:13;14.80;58.80
71208;DHT22;58938;49.868;8.646;2022-12-29T10:11:52;14.80;58.60
71208;DHT22;58938;49.868;8.646;2022-12-29T10:19:51;14.90;58.50
71208;DHT22;58938;49.868;8.646;2022-12-29T10:25:16;14.90;59.10
71208;DHT22;58938;49.868;8.646;2022-12-29T10:27:43;14.90;59.50
71208;DHT22;58938;49.868;8.646;2022-12-29T10:30:12;14.80;59.90
71208;DHT22;58938;49.868;8.646;2022-12-29T10:32:44;14.80;60.40
71208;DHT22;58938;49.868;8.646;2022-12-29T10:38:04;14.60;62.90
71208;DHT22;58938;49.868;8.646;2022-12-29T10:43:28;14.10;66.20
71208;DHT22;58938;49.868;8.646;2022-12-29T10:46:02;13.90;67.70
71208;DHT22;58938;49.868;8.646;2022-12-29T10:48:33;13.70;68.80
71208;DHT22;58938;49.868;8.646;2022-12-29T10:51:02;13.60;69.30
71208;DHT22;58938;49.868;8.646;2022-12-29T10:53:59;13.60;70.20
71208;DHT22;58938;49.868;8.646;2022-12-29T10:56:36;13.50;70.40
71208;DHT22;58938;49.868;8.646;2022-12-29T10:59:16;13.50;70.30
71208;DHT22;58938;49.868;8.646;2022-12-29T11:02:00;13.50;70.60
71208;DHT22;58938;49.868;8.646;2022-12-29T11:05:02;13.50;70.40
71208;DHT22;58938;49.868;8.646;2022-12-29T11:07:30;13.50;70.20
71208;DHT22;58938;49.868;8.646;2022-12-29T11:10:28;13.40;70.10
71208;DHT22;58938;49.868;8.646;2022-12-29T11:12:58;13.50;70.20
71208;DHT22;58938;49.868;8.646;2022-12-29T11:15:24;13.40;70.20
71208;DHT22;58938;49.868;8.646;2022-12-29T11:17:56;13.40;70.30
71208;DHT22;58938;49.868;8.646;2022-12-29T11:20:29;13.40;70.00
71208;DHT22;58938;49.868;8.646;2022-12-29T11:22:56;13.40;70.00
71208;DHT22;58938;49.868;8.646;2022-12-29T11:25:21;13.40;70.00
71208;DHT22;58938;49.868;8.646;2022-12-29T11:28:14;13.40;69.90
71208;DHT22;58938;49.868;8.646;2022-12-29T11:30:40;13.30;70.10
71208;DHT22;58938;49.868;8.646;2022-12-29T11:33:06;13.30;70.10
71208;DHT22;58938;49.868;8.646;2022-12-29T11:35:42;13.30;69.90
71208;DHT22;58938;49.868;8.646;2022-12-29T11:38:34;13.20;69.70
71208;DHT22;58938;49.868;8.646;2022-12-29T11:41:01;13.20;69.90
71208;DHT22;58938;49.868;8.646;2022-12-29T11:43:34;13.20;69.60
71208;DHT22;58938;49.868;8.646;2022-12-29T11:46:03;13.20;69.70
71208;DHT22;58938;49.868;8.646;2022-12-29T11:48:33;13.20;69.80
71208;DHT22;58938;49.868;8.646;2022-12-29T11:51:03;13.20;69.60
71208;DHT22;58938;49.868;8.646;2022-12-29T11:53:49;13.30;69.60
71208;DHT22;58938;49.868;8.646;2022-12-29T11:56:17;13.20;69.60
71208;DHT22;58938;49.868;8.646;2022-12-29T11:58:43;13.20;69.50
71208;DHT22;58938;49.868;8.646;2022-12-29T12:01:20;13.30;69.70
71208;DHT22;58938;49.868;8.646;2022-12-29T12:04:06;13.30;69.70
71208;DHT22;58938;49.868;8.646;2022-12-29T12:06:38;13.30;69.50
71208;DHT22;58938;49.868;8.646;2022-12-29T12:09:16;13.30;69.60
71208;DHT22;58938;49.868;8.646;2022-12-29T12:11:45;13.30;69.70
71208;DHT22;58938;49.868;8.646;2022-12-29T12:14:31;13.30;69.90
71208;DHT22;58938;49.868;8.646;2022-12-29T12:17:24;13.30;69.90
71208;DHT22;58938;49.868;8.646;2022-12-29T12:19:54;13.40;69.80
71208;DHT22;58938;49.868;8.646;2022-12-29T12:22:38;13.40;70.10
71208;DHT22;58938;49.868;8.646;2022-12-29T12:30:22;13.50;70.10
71208;DHT22;58938;49.868;8.646;2022-12-29T12:35:44;13.50;69.50
71208;DHT22;58938;49.868;8.646;2022-12-29T12:49:20;13.50;68.50
71208;DHT22;58938;49.868;8.646;2022-12-29T13:00:12;13.60;68.60
71208;DHT22;58938;49.868;8.646;2022-12-29T13:08:26;13.70;68.40
71208;DHT22;58938;49.868;8.646;2022-12-29T13:11:25;13.60;68.50
71208;DHT22;58938;49.868;8.646;2022-12-29T13:16:45;13.70;68.30
71208;DHT22;58938;49.868;8.646;2022-12-29T13:22:19;13.70;68.10
71208;DHT22;58938;49.868;8.646;2022-12-29T13:24:52;13.70;67.80
71208;DHT22;58938;49.868;8.646;2022-12-29T13:27:34;13.70;67.90
71208;DHT22;58938;49.868;8.646;2022-12-29T13:30:15;13.80;67.80
71208;DHT22;58938;49.868;8.646;2022-12-29T13:38:10;13.80;67.40
71208;DHT22;58938;49.868;8.646;2022-12-29T13:40:41;13.80;67.30
71208;DHT22;58938;49.868;8.646;2022-12-29T13:43:09;13.80;67.00
71208;DHT22;58938;49.868;8.646;2022-12-29T13:45:35;13.80;66.80
71208;DHT22;58938;49.868;8.646;2022-12-29T13:48:08;13.80;66.60
71208;DHT22;58938;49.868;8.646;2022-12-29T13:50:37;13.80;66.40
71208;DHT22;58938;49.868;8.646;2022-12-29T13:55:58;13.80;66.00
71208;DHT22;58938;49.868;8.646;2022-12-29T13:58:41;13.80;65.80
71208;DHT22;58938;49.868;8.646;2022-12-29T14:01:17;13.80;65.80
71208;DHT22;58938;49.868;8.646;2022-12-29T14:03:50;13.80;65.40
71208;DHT22;58938;49.868;8.646;2022-12-29T14:06:30;13.90;65.40
71208;DHT22;58938;49.868;8.646;2022-12-29T14:09:00;13.80;65.30
71208;DHT22;58938;49.868;8.646;2022-12-29T14:13:56;13.80;64.90
71208;DHT22;58938;49.868;8.646;2022-12-29T14:16:28;13.80;64.70
71208;DHT22;58938;49.868;8.646;2022-12-29T14:18:56;13.80;63.80
71208;DHT22;58938;49.868;8.646;2022-12-29T14:21:25;13.80;63.60
71208;DHT22;58938;49.868;8.646;2022-12-29T14:26:52;13.80;63.20
71208;DHT22;58938;49.868;8.646;2022-12-29T14:31:50;13.80;63.10
71208;DHT22;58938;49.868;8.646;2022-12-29T14:34:29;13.90;63.00
71208;DHT22;58938;49.868;8.646;2022-12-29T14:36:59;13.90;63.00
71208;DHT22;58938;49.868;8.646;2022-12-29T14:44:34;13.80;62.90
71208;DHT22;58938;49.868;8.646;2022-12-29T14:47:16;13.80;63.10
71208;DHT22;58938;49.868;8.646;2022-12-29T14:49:44;13.90;62.90
71208;DHT22;58938;49.868;8.646;2022-12-29T14:52:23;13.90;62.70
71208;DHT22;58938;49.868;8.646;2022-12-29T14:55:28;13.90;62.70
71208;DHT22;58938;49.868;8.646;2022-12-29T14:57:50;13.80;62.70
71208;DHT22;58938;49.868;8.646;2022-12-29T15:00:26;13.80;62.80
71208;DHT22;58938;49.868;8.646;2022-12-29T15:03:06;13.90;62.70
71208;DHT22;58938;49.868;8.646;2022-12-29T15:05:37;13.90;62.50
71208;DHT22;58938;49.868;8.646;2022-12-29T15:08:07;13.90;62.60
71208;DHT22;58938;49.868;8.646;2022-12-29T15:10:42;13.90;62.20
71208;DHT22;58938;49.868;8.646;2022-12-29T15:13:20;13.90;62.00
71208;DHT22;58938;49.868;8.646;2022-12-29T15:15:46;13.80;61.70
71208;DHT22;58938;49.868;8.646;2022-12-29T15:20:57;13.80;61.90
71208;DHT22;58938;49.868;8.646;2022-12-29T15:23:24;13.80;61.80
71208;DHT22;58938;49.868;8.646;2022-12-29T15:26:06;13.80;61.80
71208;DHT22;58938;49.868;8.646;2022-12-29T15:28:42;13.80;61.80
71208;DHT22;58938;49.868;8.646;2022-12-29T15:31:18;13.70;61.60
71208;DHT22;58938;49.868;8.646;2022-12-29T15:33:50;13.70;61.70
71208;DHT22;58938;49.868;8.646;2022-12-29T15:36:25;13.70;61.70
71208;DHT22;58938;49.868;8.646;2022-12-29T15:38:51;13.70;61.80
71208;DHT22;58938;49.868;8.646;2022-12-29T15:41:37;13.60;61.70
71208;DHT22;58938;49.868;8.646;2022-12-29T15:47:01;13.50;61.90
71208;DHT22;58938;49.868;8.646;2022-12-29T15:49:27;13.50;62.20
71208;DHT22;58938;49.868;8.646;2022-12-29T15:51:52;13.50;62.30
71208;DHT22;58938;49.868;8.646;2022-12-29T15:54:20;13.50;62.40
71208;DHT22;58938;49.868;8.646;2022-12-29T15:56:47;13.40;62.40
71208;DHT22;58938;49.868;8.646;2022-12-29T15:59:27;13.40;62.50
71208;DHT22;58938;49.868;8.646;2022-12-29T16:01:58;13.40;62.70
71208;DHT22;58938;49.868;8.646;2022-12-29T16:04:28;13.40;62.90
71208;DHT22;58938;49.868;8.646;2022-12-29T16:06:57;13.40;62.80
71208;DHT22;58938;49.868;8.646;2022-12-29T16:09:32;13.40;62.80
71208;DHT22;58938;49.868;8.646;2022-12-29T16:12:06;13.30;62.80
71208;DHT22;58938;49.868;8.646;2022-12-29T16:14:54;13.30;62.90
71208;DHT22;58938;49.868;8.646;2022-12-29T16:17:24;13.30;63.10
71208;DHT22;58938;49.868;8.646;2022-12-29T16:19:58;13.20;63.10
71208;DHT22;58938;49.868;8.646;2022-12-29T16:22:35;13.20;63.00
71208;DHT22;58938;49.868;8.646;2022-12-29T16:25:06;13.20;63.30
71208;DHT22;58938;49.868;8.646;2022-12-29T16:27:39;13.20;63.30
71208;DHT22;58938;49.868;8.646;2022-12-29T16:30:16;13.20;63.30
71208;DHT22;58938;49.868;8.646;2022-12-29T16:32:56;13.20;63.30
71208;DHT22;58938;49.868;8.646;2022-12-29T16:35:27;13.20;63.20
71208;DHT22;58938;49.868;8.646;2022-12-29T16:38:15;13.10;63.00
71208;DHT22;58938;49.868;8.646;2022-12-29T16:40:51;13.10;63.20
71208;DHT22;58938;49.868;8.646;2022-12-29T16:43:35;13.10;63.10
71208;DHT22;58938;49.868;8.646;2022-12-29T16:46:21;13.10;62.90
71208;DHT22;58938;49.868;8.646;2022-12-29T16:48:52;13.10;63.10
71208;DHT22;58938;49.868;8.646;2022-12-29T16:53:55;13.00;62.80
71208;DHT22;58938;49.868;8.646;2022-12-29T16:56:23;13.00;62.80
71208;DHT22;58938;49.868;8.646;2022-12-29T16:58:56;13.00;62.90
71208;DHT22;58938;49.868;8.646;2022-12-29T17:01:23;13.00;62.70
71208;DHT22;58938;49.868;8.646;2022-12-29T17:03:58;13.00;62.80
71208;DHT22;58938;49.868;8.646;2022-12-29T17:06:24;13.00;62.80
71208;DHT22;58938;49.868;8.646;2022-12-29T17:08:51;13.00;62.60
71208;DHT22;58938;49.868;8.646;2022-12-29T17:11:21;13.00;62.70
71208;DHT22;58938;49.868;8.646;2022-12-29T17:16:56;13.00;62.90
71208;DHT22;58938;49.868;8.646;2022-12-29T17:19:29;13.00;62.60
71208;DHT22;58938;49.868;8.646;2022-12-29T17:21:55;13.00;62.60
71208;DHT22;58938;49.868;8.646;2022-12-29T17:24:20;13.00;62.60
71208;DHT22;58938;49.868;8.646;2022-12-29T17:26:49;13.00;62.60
71208;DHT22;58938;49.868;8.646;2022-12-29T17:29:22;13.00;62.30
71208;DHT22;58938;49.868;8.646;2022-12-29T17:31:51;12.90;62.20
71208;DHT22;58938;49.868;8.646;2022-12-29T17:34:19;12.90;62.60
71208;DHT22;58938;49.868;8.646;2022-12-29T17:36:44;12.90;62.40
71208;DHT22;58938;49.868;8.646;2022-12-29T17:39:10;12.90;62.30
71208;DHT22;58938;49.868;8.646;2022-12-29T17:41:36;12.90;62.20
71208;DHT22;58938;49.868;8.646;2022-12-29T17:44:02;12.80;62.50
71208;DHT22;58938;49.868;8.646;2022-12-29T17:46:27;12.90;62.50
71208;DHT22;58938;49.868;8.646;2022-12-29T17:48:56;12.90;62.50
71208;DHT22;58938;49.868;8.646;2022-12-29T17:51:21;12.90;62.50
71208;DHT22;58938;49.868;8.646;2022-12-29T17:53:47;12.80;62.60
71208;DHT22;58938;49.868;8.646;2022-12-29T17:56:14;12.90;62.50